sensor_id;sensor_type;location;lat;lon;timestamp;temperature;humidity
3051;DHT22;1535;51.098;6.414;2022-12-07T00:00:52;4.90;99.90
3051;DHT22;1535;51.098;6.414;2022-12-07T00:03:19;4.80;99.90
3051;DHT22;1535;51.098;6.414;2022-12-07T00:05:46;4.80;99.90
3051;DHT22;1535;51.098;6.414;2022-12-07T00:08:14;4.90;99.90
3051;DHT22;1535;51.098;6.414;2022-12-07T00:10:41;4.80;99.90
3051;DHT22;1535;51.098;6.414;2022-12-07T00:13:09;4.80;99.90
3051;DHT22;1535;51.098;6.414;2022-12-07T00:15:37;4.70;99.90
3051;DHT22;1535;51.098;6.414;2022-12-07T00:18:05;4.70;99.90
3051;DHT22;1535;51.098;6.414;2022-12-07T00:20:33;4.60;99.90
3051;DHT22;1535;51.098;6.414;2022-12-07T00:22:59;4.60;99.90
3051;DHT22;1535;51.098;6.414;2022-12-07T00:25:28;4.60;99.90
3051;DHT22;1535;51.098;6.414;2022-12-07T00:27:56;4.70;99.90
3051;DHT22;1535;51.098;6.414;2022-12-07T00:30:23;4.70;99.90
3051;DHT22;1535;51.098;6.414;2022-12-07T00:32:50;4.60;99.90
3051;DHT22;1535;51.098;6.414;2022-12-07T00:35:18;4.60;99.90
3051;DHT22;1535;51.098;6.414;2022-12-07T00:37:45;4.60;99.90
3051;DHT22;1535;51.098;6.414;2022-12-07T00:40:12;4.60;99.90
3051;DHT22;1535;51.098;6.414;2022-12-07T00:42:41;4.70;99.90
3051;DHT22;1535;51.098;6.414;2022-12-07T00:45:08;4.70;99.90
3051;DHT22;1535;51.098;6.414;2022-12-07T00:47:35;4.80;99.90
3051;DHT22;1535;51.098;6.414;2022-12-07T00:50:02;4.80;99.90
3051;DHT22;1535;51.098;6.414;2022-12-07T00:52:29;4.80;99.90
3051;DHT22;1535;51.098;6.414;2022-12-07T00:54:56;4.80;99.90
3051;DHT22;1535;51.098;6.414;2022-12-07T00:57:23;4.80;99.90
3051;DHT22;1535;51.098;6.414;2022-12-07T00:59:51;4.80;99.90
3051;DHT22;1535;51.098;6.414;2022-12-07T01:02:20;4.80;99.90
3051;DHT22;1535;51.098;6.414;2022-12-07T01:04:47;4.80;99.90
3051;DHT22;1535;51.098;6.414;2022-12-07T01:07:14;4.80;99.90
3051;DHT22;1535;51.098;6.414;2022-12-07T01:09:41;4.80;99.90
3051;DHT22;1535;51.098;6.414;2022-12-07T01:12:08;4.80;99.90
3051;DHT22;1535;51.098;6.414;2022-12-07T01:14:36;4.80;99.90
3051;DHT22;1535;51.098;6.414;2022-12-07T01:17:04;4.90;99.90
3051;DHT22;1535;51.098;6.414;2022-12-07T01:19:31;4.90;99.90
3051;DHT22;1535;51.098;6.414;2022-12-07T01:21:57;4.80;99.90
3051;DHT22;1535;51.098;6.414;2022-12-07T01:24:24;4.70;99.90
3051;DHT22;1535;51.098;6.414;2022-12-07T01:26:51;4.80;99.90
3051;DHT22;1535;51.098;6.414;2022-12-07T01:29:19;4.70;99.90
3051;DHT22;1535;51.098;6.414;2022-12-07T01:31:48;4.70;99.90
3051;DHT22;1535;51.098;6.414;2022-12-07T01:34:17;4.70;99.90
3051;DHT22;1535;51.098;6.414;2022-12-07T01:36:44;4.70;99.90
3051;DHT22;1535;51.098;6.414;2022-12-07T01:39:11;4.70;99.90
3051;DHT22;1535;51.098;6.414;2022-12-07T01:41:39;4.80;99.90
3051;DHT22;1535;51.098;6.414;2022-12-07T01:44:12;4.70;99.90
3051;DHT22;1535;51.098;6.414;2022-12-07T01:46:40;4.80;99.90
3051;DHT22;1535;51.098;6.414;2022-12-07T01:49:10;4.80;99.90
3051;DHT22;1535;51.098;6.414;2022-12-07T01:51:41;4.70;99.90
3051;DHT22;1535;51.098;6.414;2022-12-07T01:54:10;4.70;99.90
3051;DHT22;1535;51.098;6.414;2022-12-07T01:56:40;4.60;99.90
3051;DHT22;1535;51.098;6.414;2022-12-07T01:59:10;4.70;99.90
3051;DHT22;1535;51.098;6.414;2022-12-07T02:01:36;4.70;99.90
3051;DHT22;1535;51.098;6.414;2022-12-07T02:04:03;4.70;99.90
3051;DHT22;1535;51.098;6.414;2022-12-07T02:06:31;4.70;99.90
3051;DHT22;1535;51.098;6.414;2022-12-07T02:08:59;4.70;99.90
3051;DHT22;1535;51.098;6.414;2022-12-07T02:11:26;4.70;99.90
3051;DHT22;1535;51.098;6.414;2022-12-07T02:13:54;4.70;99.90
3051;DHT22;1535;51.098;6.414;2022-12-07T02:16:27;4.60;99.90
3051;DHT22;1535;51.098;6.414;2022-12-07T02:19:09;4.80;99.90
3051;DHT22;1535;51.098;6.414;2022-12-07T02:21:45;4.50;99.90
3051;DHT22;1535;51.098;6.414;2022-12-07T02:24:29;4.70;99.90
3051;DHT22;1535;51.098;6.414;2022-12-07T02:27:16;4.70;99.90
3051;DHT22;1535;51.098;6.414;2022-12-07T02:29:53;4.70;99.90
3051;DHT22;1535;51.098;6.414;2022-12-07T02:32:26;4.70;99.90
3051;DHT22;1535;51.098;6.414;2022-12-07T02:34:56;4.70;99.90
3051;DHT22;1535;51.098;6.414;2022-12-07T02:37:33;4.70;99.90
3051;DHT22;1535;51.098;6.414;2022-12-07T02:40:06;4.70;99.90
3051;DHT22;1535;51.098;6.414;2022-12-07T02:42:38;4.60;99.90
3051;DHT22;1535;51.098;6.414;2022-12-07T02:45:15;4.80;99.90
3051;DHT22;1535;51.098;6.414;2022-12-07T02:47:43;4.60;99.90
3051;DHT22;1535;51.098;6.414;2022-12-07T02:50:11;4.70;99.90
3051;DHT22;1535;51.098;6.414;2022-12-07T02:52:38;4.70;99.90
3051;DHT22;1535;51.098;6.414;2022-12-07T02:55:06;4.60;99.90
3051;DHT22;1535;51.098;6.414;2022-12-07T02:57:49;4.60;99.90
3051;DHT22;1535;51.098;6.414;2022-12-07T03:00:21;4.50;99.90
3051;DHT22;1535;51.098;6.414;2022-12-07T03:02:53;4.50;99.90
3051;DHT22;1535;51.098;6.414;2022-12-07T03:05:54;4.50;99.90
3051;DHT22;1535;51.098;6.414;2022-12-07T03:08:31;4.60;99.90
3051;DHT22;1535;51.098;6.414;2022-12-07T03:11:03;4.60;99.90
3051;DHT22;1535;51.098;6.414;2022-12-07T03:13:34;4.70;99.90
3051;DHT22;1535;51.098;6.414;2022-12-07T03:16:10;4.70;99.90
3051;DHT22;1535;51.098;6.414;2022-12-07T03:18:44;4.70;99.90
3051;DHT22;1535;51.098;6.414;2022-12-07T03:21:14;4.70;99.90
3051;DHT22;1535;51.098;6.414;2022-12-07T03:23:44;4.50;99.90
3051;DHT22;1535;51.098;6.414;2022-12-07T03:26:12;4.50;99.90
3051;DHT22;1535;51.098;6.414;2022-12-07T03:28:45;4.50;99.90
3051;DHT22;1535;51.098;6.414;2022-12-07T03:31:18;4.50;99.90
3051;DHT22;1535;51.098;6.414;2022-12-07T03:33:51;4.40;99.90
3051;DHT22;1535;51.098;6.414;2022-12-07T03:36:22;4.40;99.90
3051;DHT22;1535;51.098;6.414;2022-12-07T03:38:55;4.30;99.90
3051;DHT22;1535;51.098;6.414;2022-12-07T03:41:28;4.40;99.90
3051;DHT22;1535;51.098;6.414;2022-12-07T03:43:56;4.40;99.90
3051;DHT22;1535;51.098;6.414;2022-12-07T03:46:34;4.50;99.90
3051;DHT22;1535;51.098;6.414;2022-12-07T03:49:08;4.50;99.90
3051;DHT22;1535;51.098;6.414;2022-12-07T03:51:43;4.60;99.90
3051;DHT22;1535;51.098;6.414;2022-12-07T03:54:15;4.50;99.90
3051;DHT22;1535;51.098;6.414;2022-12-07T03:56:46;4.50;99.90
3051;DHT22;1535;51.098;6.414;2022-12-07T03:59:14;4.40;99.90
3051;DHT22;1535;51.098;6.414;2022-12-07T04:01:44;4.50;99.90
3051;DHT22;1535;51.098;6.414;2022-12-07T04:04:12;4.50;99.90
3051;DHT22;1535;51.098;6.414;2022-12-07T04:06:38;4.50;99.90
3051;DHT22;1535;51.098;6.414;2022-12-07T04:09:05;4.40;99.90
3051;DHT22;1535;51.098;6.414;2022-12-07T04:11:32;4.30;99.90
3051;DHT22;1535;51.098;6.414;2022-12-07T04:13:59;4.30;99.90
3051;DHT22;1535;51.098;6.414;2022-12-07T04:16:45;4.20;99.90
3051;DHT22;1535;51.098;6.414;2022-12-07T04:19:13;4.00;99.90
3051;DHT22;1535;51.098;6.414;2022-12-07T04:21:39;4.00;99.90
3051;DHT22;1535;51.098;6.414;2022-12-07T04:24:06;3.90;99.90
3051;DHT22;1535;51.098;6.414;2022-12-07T04:26:33;3.90;99.90
3051;DHT22;1535;51.098;6.414;2022-12-07T04:29:00;3.80;99.90
3051;DHT22;1535;51.098;6.414;2022-12-07T04:31:27;3.80;99.90
3051;DHT22;1535;51.098;6.414;2022-12-07T04:33:55;3.80;99.90
3051;DHT22;1535;51.098;6.414;2022-12-07T04:36:22;3.90;99.90
3051;DHT22;1535;51.098;6.414;2022-12-07T04:38:49;3.90;99.90
3051;DHT22;1535;51.098;6.414;2022-12-07T04:41:16;3.90;99.90
3051;DHT22;1535;51.098;6.414;2022-12-07T04:43:42;4.00;99.90
3051;DHT22;1535;51.098;6.414;2022-12-07T04:46:09;4.00;99.90
3051;DHT22;1535;51.098;6.414;2022-12-07T04:48:37;4.10;99.90
3051;DHT22;1535;51.098;6.414;2022-12-07T04:51:05;4.30;99.90
3051;DHT22;1535;51.098;6.414;2022-12-07T04:53:32;4.10;99.90
3051;DHT22;1535;51.098;6.414;2022-12-07T04:56:00;4.00;99.90
3051;DHT22;1535;51.098;6.414;2022-12-07T04:58:27;4.10;99.90
3051;DHT22;1535;51.098;6.414;2022-12-07T05:00:54;4.10;99.90
3051;DHT22;1535;51.098;6.414;2022-12-07T05:03:21;4.20;99.90
3051;DHT22;1535;51.098;6.414;2022-12-07T05:05:48;4.20;99.90
3051;DHT22;1535;51.098;6.414;2022-12-07T05:08:16;4.10;99.90
3051;DHT22;1535;51.098;6.414;2022-12-07T05:10:44;4.10;99.90
3051;DHT22;1535;51.098;6.414;2022-12-07T05:13:11;4.10;99.90
3051;DHT22;1535;51.098;6.414;2022-12-07T05:15:37;4.20;99.90
3051;DHT22;1535;51.098;6.414;2022-12-07T05:18:04;4.20;99.90
3051;DHT22;1535;51.098;6.414;2022-12-07T05:20:31;4.20;99.90
3051;DHT22;1535;51.098;6.414;2022-12-07T05:22:57;4.10;99.90
3051;DHT22;1535;51.098;6.414;2022-12-07T05:25:26;4.10;99.90
3051;DHT22;1535;51.098;6.414;2022-12-07T05:27:55;4.10;99.90
3051;DHT22;1535;51.098;6.414;2022-12-07T05:30:22;4.20;99.90
3051;DHT22;1535;51.098;6.414;2022-12-07T05:32:49;4.30;99.90
3051;DHT22;1535;51.098;6.414;2022-12-07T05:35:16;4.20;99.90
3051;DHT22;1535;51.098;6.414;2022-12-07T05:37:43;4.20;99.90
3051;DHT22;1535;51.098;6.414;2022-12-07T05:40:11;4.30;99.90
3051;DHT22;1535;51.098;6.414;2022-12-07T05:42:40;4.20;99.90
3051;DHT22;1535;51.098;6.414;2022-12-07T05:45:08;4.20;99.90
3051;DHT22;1535;51.098;6.414;2022-12-07T05:47:36;4.20;99.90
3051;DHT22;1535;51.098;6.414;2022-12-07T05:50:04;4.20;99.90
3051;DHT22;1535;51.098;6.414;2022-12-07T05:52:32;4.20;99.90
3051;DHT22;1535;51.098;6.414;2022-12-07T05:54:59;4.20;99.90
3051;DHT22;1535;51.098;6.414;2022-12-07T05:57:26;4.20;99.90
3051;DHT22;1535;51.098;6.414;2022-12-07T05:59:54;4.20;99.90
3051;DHT22;1535;51.098;6.414;2022-12-07T06:02:20;4.30;99.90
3051;DHT22;1535;51.098;6.414;2022-12-07T06:04:47;4.20;99.90
3051;DHT22;1535;51.098;6.414;2022-12-07T06:07:15;4.30;99.90
3051;DHT22;1535;51.098;6.414;2022-12-07T06:09:42;4.30;99.90
3051;DHT22;1535;51.098;6.414;2022-12-07T06:12:10;4.30;99.90
3051;DHT22;1535;51.098;6.414;2022-12-07T06:14:56;4.40;99.90
3051;DHT22;1535;51.098;6.414;2022-12-07T06:17:24;4.30;99.90
3051;DHT22;1535;51.098;6.414;2022-12-07T06:19:51;4.30;99.90
3051;DHT22;1535;51.098;6.414;2022-12-07T06:22:18;4.40;99.90
3051;DHT22;1535;51.098;6.414;2022-12-07T06:24:45;4.40;99.90
3051;DHT22;1535;51.098;6.414;2022-12-07T06:27:12;4.40;99.90
3051;DHT22;1535;51.098;6.414;2022-12-07T06:29:38;4.30;99.90
3051;DHT22;1535;51.098;6.414;2022-12-07T06:32:07;4.20;99.90
3051;DHT22;1535;51.098;6.414;2022-12-07T06:34:34;4.20;99.90
3051;DHT22;1535;51.098;6.414;2022-12-07T06:37:00;4.30;99.90
3051;DHT22;1535;51.098;6.414;2022-12-07T06:39:28;4.30;99.90
3051;DHT22;1535;51.098;6.414;2022-12-07T06:41:55;4.40;99.90
3051;DHT22;1535;51.098;6.414;2022-12-07T06:44:24;4.40;99.90
3051;DHT22;1535;51.098;6.414;2022-12-07T06:46:51;4.40;99.90
3051;DHT22;1535;51.098;6.414;2022-12-07T06:49:19;4.40;99.90
3051;DHT22;1535;51.098;6.414;2022-12-07T06:51:46;4.40;99.90
3051;DHT22;1535;51.098;6.414;2022-12-07T06:54:14;4.40;99.90
3051;DHT22;1535;51.098;6.414;2022-12-07T06:56:41;4.40;99.90
3051;DHT22;1535;51.098;6.414;2022-12-07T06:59:08;4.30;99.90
3051;DHT22;1535;51.098;6.414;2022-12-07T07:01:35;4.20;99.90
3051;DHT22;1535;51.098;6.414;2022-12-07T07:04:02;4.10;99.90
3051;DHT22;1535;51.098;6.414;2022-12-07T07:06:31;4.00;99.90
3051;DHT22;1535;51.098;6.414;2022-12-07T07:08:58;3.80;99.90
3051;DHT22;1535;51.098;6.414;2022-12-07T07:11:25;3.80;99.90
3051;DHT22;1535;51.098;6.414;2022-12-07T07:13:51;3.70;99.90
3051;DHT22;1535;51.098;6.414;2022-12-07T07:16:19;3.60;99.90
3051;DHT22;1535;51.098;6.414;2022-12-07T07:18:47;3.50;99.90
3051;DHT22;1535;51.098;6.414;2022-12-07T07:21:13;3.50;99.90
3051;DHT22;1535;51.098;6.414;2022-12-07T07:23:42;3.50;99.90
3051;DHT22;1535;51.098;6.414;2022-12-07T07:26:09;3.50;99.90
3051;DHT22;1535;51.098;6.414;2022-12-07T07:28:35;3.50;99.90
3051;DHT22;1535;51.098;6.414;2022-12-07T07:31:02;3.50;99.90
3051;DHT22;1535;51.098;6.414;2022-12-07T07:33:30;3.60;99.90
3051;DHT22;1535;51.098;6.414;2022-12-07T07:35:58;3.70;99.90
3051;DHT22;1535;51.098;6.414;2022-12-07T07:38:24;3.70;99.90
3051;DHT22;1535;51.098;6.414;2022-12-07T07:40:53;3.80;99.90
3051;DHT22;1535;51.098;6.414;2022-12-07T07:43:20;3.80;99.90
3051;DHT22;1535;51.098;6.414;2022-12-07T07:45:46;3.90;99.90
3051;DHT22;1535;51.098;6.414;2022-12-07T07:48:13;3.90;99.90
3051;DHT22;1535;51.098;6.414;2022-12-07T07:50:40;4.00;99.90
3051;DHT22;1535;51.098;6.414;2022-12-07T07:53:08;4.00;99.90
3051;DHT22;1535;51.098;6.414;2022-12-07T07:55:35;4.00;99.90
3051;DHT22;1535;51.098;6.414;2022-12-07T07:58:03;4.10;99.90
3051;DHT22;1535;51.098;6.414;2022-12-07T08:00:30;4.20;99.90
3051;DHT22;1535;51.098;6.414;2022-12-07T08:02:57;4.20;99.90
3051;DHT22;1535;51.098;6.414;2022-12-07T08:05:24;4.30;99.90
3051;DHT22;1535;51.098;6.414;2022-12-07T08:07:51;4.30;99.90
3051;DHT22;1535;51.098;6.414;2022-12-07T08:10:18;4.30;99.90
3051;DHT22;1535;51.098;6.414;2022-12-07T08:12:44;4.30;99.90
3051;DHT22;1535;51.098;6.414;2022-12-07T08:15:31;4.20;99.90
3051;DHT22;1535;51.098;6.414;2022-12-07T08:18:03;4.10;99.90
3051;DHT22;1535;51.098;6.414;2022-12-07T08:20:31;4.00;99.90
3051;DHT22;1535;51.098;6.414;2022-12-07T08:22:58;4.00;99.90
3051;DHT22;1535;51.098;6.414;2022-12-07T08:25:26;4.00;99.90
3051;DHT22;1535;51.098;6.414;2022-12-07T08:27:53;4.00;99.90
3051;DHT22;1535;51.098;6.414;2022-12-07T08:30:22;4.10;99.90
3051;DHT22;1535;51.098;6.414;2022-12-07T08:32:50;4.20;99.90
3051;DHT22;1535;51.098;6.414;2022-12-07T08:35:21;4.30;99.90
3051;DHT22;1535;51.098;6.414;2022-12-07T08:37:48;4.30;99.90
3051;DHT22;1535;51.098;6.414;2022-12-07T08:40:15;4.30;99.90
3051;DHT22;1535;51.098;6.414;2022-12-07T08:42:47;4.40;99.90
3051;DHT22;1535;51.098;6.414;2022-12-07T08:45:16;4.50;99.90
3051;DHT22;1535;51.098;6.414;2022-12-07T08:47:47;4.50;99.90
3051;DHT22;1535;51.098;6.414;2022-12-07T08:50:18;4.50;99.90
3051;DHT22;1535;51.098;6.414;2022-12-07T08:52:51;4.50;99.90
3051;DHT22;1535;51.098;6.414;2022-12-07T08:55:19;4.60;99.90
3051;DHT22;1535;51.098;6.414;2022-12-07T08:57:46;4.60;99.90
3051;DHT22;1535;51.098;6.414;2022-12-07T09:00:13;4.60;99.90
3051;DHT22;1535;51.098;6.414;2022-12-07T09:02:43;4.60;99.90
3051;DHT22;1535;51.098;6.414;2022-12-07T09:05:10;4.70;99.90
3051;DHT22;1535;51.098;6.414;2022-12-07T09:07:38;4.70;99.90
3051;DHT22;1535;51.098;6.414;2022-12-07T09:10:06;4.80;99.90
3051;DHT22;1535;51.098;6.414;2022-12-07T09:12:33;4.80;99.90
3051;DHT22;1535;51.098;6.414;2022-12-07T09:15:00;4.80;99.90
3051;DHT22;1535;51.098;6.414;2022-12-07T09:17:27;4.90;99.90
3051;DHT22;1535;51.098;6.414;2022-12-07T09:19:58;5.00;99.90
3051;DHT22;1535;51.098;6.414;2022-12-07T09:22:28;5.00;99.90
3051;DHT22;1535;51.098;6.414;2022-12-07T09:24:56;5.10;99.90
3051;DHT22;1535;51.098;6.414;2022-12-07T09:27:23;5.20;99.90
3051;DHT22;1535;51.098;6.414;2022-12-07T09:29:50;5.20;99.90
3051;DHT22;1535;51.098;6.414;2022-12-07T09:32:18;5.20;99.90
3051;DHT22;1535;51.098;6.414;2022-12-07T09:34:44;5.20;99.90
3051;DHT22;1535;51.098;6.414;2022-12-07T09:37:12;5.30;99.90
3051;DHT22;1535;51.098;6.414;2022-12-07T09:39:40;5.30;99.90
3051;DHT22;1535;51.098;6.414;2022-12-07T09:42:09;5.40;99.90
3051;DHT22;1535;51.098;6.414;2022-12-07T09:44:41;5.40;99.90
3051;DHT22;1535;51.098;6.414;2022-12-07T09:47:09;5.40;99.90
3051;DHT22;1535;51.098;6.414;2022-12-07T09:49:37;5.50;99.90
3051;DHT22;1535;51.098;6.414;2022-12-07T09:52:19;5.50;99.90
3051;DHT22;1535;51.098;6.414;2022-12-07T09:54:48;5.50;99.90
3051;DHT22;1535;51.098;6.414;2022-12-07T09:57:17;5.50;99.90
3051;DHT22;1535;51.098;6.414;2022-12-07T09:59:44;5.50;99.90
3051;DHT22;1535;51.098;6.414;2022-12-07T10:02:25;5.40;99.90
3051;DHT22;1535;51.098;6.414;2022-12-07T10:04:54;5.30;99.90
3051;DHT22;1535;51.098;6.414;2022-12-07T10:07:22;5.30;99.90
3051;DHT22;1535;51.098;6.414;2022-12-07T10:09:49;5.30;99.90
3051;DHT22;1535;51.098;6.414;2022-12-07T10:12:18;5.30;99.90
3051;DHT22;1535;51.098;6.414;2022-12-07T10:14:54;5.30;99.90
3051;DHT22;1535;51.098;6.414;2022-12-07T10:17:38;5.30;99.90
3051;DHT22;1535;51.098;6.414;2022-12-07T10:20:15;5.30;99.90
3051;DHT22;1535;51.098;6.414;2022-12-07T10:22:58;5.40;99.90
3051;DHT22;1535;51.098;6.414;2022-12-07T10:25:27;5.60;99.90
3051;DHT22;1535;51.098;6.414;2022-12-07T10:28:00;5.70;99.90
3051;DHT22;1535;51.098;6.414;2022-12-07T10:30:27;5.80;99.90
3051;DHT22;1535;51.098;6.414;2022-12-07T10:32:54;5.80;99.90
3051;DHT22;1535;51.098;6.414;2022-12-07T10:35:24;6.00;99.90
3051;DHT22;1535;51.098;6.414;2022-12-07T10:37:52;6.00;99.90
3051;DHT22;1535;51.098;6.414;2022-12-07T10:40:30;6.00;99.90
3051;DHT22;1535;51.098;6.414;2022-12-07T10:43:13;6.10;99.90
3051;DHT22;1535;51.098;6.414;2022-12-07T10:48:54;6.40;99.90
3051;DHT22;1535;51.098;6.414;2022-12-07T10:51:30;6.40;99.90
3051;DHT22;1535;51.098;6.414;2022-12-07T10:54:11;6.60;99.90
3051;DHT22;1535;51.098;6.414;2022-12-07T10:59:53;6.60;99.90
3051;DHT22;1535;51.098;6.414;2022-12-07T11:05:28;6.50;99.90
3051;DHT22;1535;51.098;6.414;2022-12-07T11:08:05;6.50;99.90
3051;DHT22;1535;51.098;6.414;2022-12-07T11:10:47;6.50;99.90
3051;DHT22;1535;51.098;6.414;2022-12-07T11:13:25;6.50;99.90
3051;DHT22;1535;51.098;6.414;2022-12-07T11:16:10;6.60;99.90
3051;DHT22;1535;51.098;6.414;2022-12-07T11:18:50;6.80;99.90
3051;DHT22;1535;51.098;6.414;2022-12-07T11:21:23;6.80;99.90
3051;DHT22;1535;51.098;6.414;2022-12-07T11:23:56;6.80;99.90
3051;DHT22;1535;51.098;6.414;2022-12-07T11:26:39;6.90;99.90
3051;DHT22;1535;51.098;6.414;2022-12-07T11:29:21;7.00;99.90
3051;DHT22;1535;51.098;6.414;2022-12-07T11:32:01;7.00;99.90
3051;DHT22;1535;51.098;6.414;2022-12-07T11:34:37;6.90;99.90
3051;DHT22;1535;51.098;6.414;2022-12-07T11:37:09;6.80;99.90
3051;DHT22;1535;51.098;6.414;2022-12-07T11:39:42;6.60;99.90
3051;DHT22;1535;51.098;6.414;2022-12-07T11:42:15;6.40;99.90
3051;DHT22;1535;51.098;6.414;2022-12-07T11:44:50;6.30;99.90
3051;DHT22;1535;51.098;6.414;2022-12-07T11:47:25;6.20;99.90
3051;DHT22;1535;51.098;6.414;2022-12-07T11:49:56;6.40;99.90
3051;DHT22;1535;51.098;6.414;2022-12-07T11:52:32;6.30;99.90
3051;DHT22;1535;51.098;6.414;2022-12-07T11:55:16;6.30;99.90
3051;DHT22;1535;51.098;6.414;2022-12-07T11:57:46;6.30;99.90
3051;DHT22;1535;51.098;6.414;2022-12-07T12:00:17;6.10;99.90
3051;DHT22;1535;51.098;6.414;2022-12-07T12:02:51;6.10;99.90
3051;DHT22;1535;51.098;6.414;2022-12-07T12:05:22;6.20;99.90
3051;DHT22;1535;51.098;6.414;2022-12-07T12:07:53;6.60;99.90
3051;DHT22;1535;51.098;6.414;2022-12-07T12:10:26;6.80;99.90
3051;DHT22;1535;51.098;6.414;2022-12-07T12:15:57;6.60;99.90
3051;DHT22;1535;51.098;6.414;2022-12-07T12:18:51;6.50;99.90
3051;DHT22;1535;51.098;6.414;2022-12-07T12:21:23;6.60;99.90
3051;DHT22;1535;51.098;6.414;2022-12-07T12:23:57;6.70;99.90
3051;DHT22;1535;51.098;6.414;2022-12-07T12:26:26;6.60;99.90
3051;DHT22;1535;51.098;6.414;2022-12-07T12:28:56;6.60;99.90
3051;DHT22;1535;51.098;6.414;2022-12-07T12:31:33;6.60;99.90
3051;DHT22;1535;51.098;6.414;2022-12-07T12:34:11;6.80;99.90
3051;DHT22;1535;51.098;6.414;2022-12-07T12:36:53;7.00;99.90
3051;DHT22;1535;51.098;6.414;2022-12-07T12:39:19;7.30;99.90
3051;DHT22;1535;51.098;6.414;2022-12-07T12:42:00;7.50;99.90
3051;DHT22;1535;51.098;6.414;2022-12-07T12:45:16;7.40;99.90
3051;DHT22;1535;51.098;6.414;2022-12-07T12:48:09;7.70;99.90
3051;DHT22;1535;51.098;6.414;2022-12-07T12:51:38;8.20;99.90
3051;DHT22;1535;51.098;6.414;2022-12-07T12:54:12;8.40;99.90
3051;DHT22;1535;51.098;6.414;2022-12-07T12:56:44;8.80;99.90
3051;DHT22;1535;51.098;6.414;2022-12-07T12:59:26;8.90;99.90
3051;DHT22;1535;51.098;6.414;2022-12-07T13:02:06;9.60;99.90
3051;DHT22;1535;51.098;6.414;2022-12-07T13:04:52;10.10;99.90
3051;DHT22;1535;51.098;6.414;2022-12-07T13:07:51;10.20;99.90
3051;DHT22;1535;51.098;6.414;2022-12-07T13:10:24;10.10;99.90
3051;DHT22;1535;51.098;6.414;2022-12-07T13:12:57;9.80;99.90
3051;DHT22;1535;51.098;6.414;2022-12-07T13:15:35;9.30;99.90
3051;DHT22;1535;51.098;6.414;2022-12-07T13:20:49;8.90;99.90
3051;DHT22;1535;51.098;6.414;2022-12-07T13:23:24;8.70;99.90
3051;DHT22;1535;51.098;6.414;2022-12-07T13:26:03;8.40;99.90
3051;DHT22;1535;51.098;6.414;2022-12-07T13:28:35;8.20;99.90
3051;DHT22;1535;51.098;6.414;2022-12-07T13:33:58;8.00;99.90
3051;DHT22;1535;51.098;6.414;2022-12-07T13:36:27;7.90;99.90
3051;DHT22;1535;51.098;6.414;2022-12-07T13:38:59;8.00;99.90
3051;DHT22;1535;51.098;6.414;2022-12-07T13:41:27;7.80;99.90
3051;DHT22;1535;51.098;6.414;2022-12-07T13:44:00;7.80;99.90
3051;DHT22;1535;51.098;6.414;2022-12-07T13:46:37;7.80;99.90
3051;DHT22;1535;51.098;6.414;2022-12-07T13:49:18;7.80;99.90
3051;DHT22;1535;51.098;6.414;2022-12-07T13:51:45;7.90;99.90
3051;DHT22;1535;51.098;6.414;2022-12-07T13:54:14;7.70;99.90
3051;DHT22;1535;51.098;6.414;2022-12-07T13:56:41;7.70;99.90
3051;DHT22;1535;51.098;6.414;2022-12-07T13:59:14;7.70;99.90
3051;DHT22;1535;51.098;6.414;2022-12-07T14:01:41;7.60;99.90
3051;DHT22;1535;51.098;6.414;2022-12-07T14:04:34;7.60;99.90
3051;DHT22;1535;51.098;6.414;2022-12-07T14:07:20;7.40;99.90
3051;DHT22;1535;51.098;6.414;2022-12-07T14:09:56;7.30;99.90
3051;DHT22;1535;51.098;6.414;2022-12-07T14:12:24;7.20;99.90
3051;DHT22;1535;51.098;6.414;2022-12-07T14:14:52;7.00;99.90
3051;DHT22;1535;51.098;6.414;2022-12-07T14:17:21;6.90;99.90
3051;DHT22;1535;51.098;6.414;2022-12-07T14:19:50;6.60;99.90
3051;DHT22;1535;51.098;6.414;2022-12-07T14:22:23;6.10;99.90
3051;DHT22;1535;51.098;6.414;2022-12-07T14:25:00;5.80;99.90
3051;DHT22;1535;51.098;6.414;2022-12-07T14:27:31;5.70;99.90
3051;DHT22;1535;51.098;6.414;2022-12-07T14:30:00;5.60;99.90
3051;DHT22;1535;51.098;6.414;2022-12-07T14:32:29;5.60;99.90
3051;DHT22;1535;51.098;6.414;2022-12-07T14:35:02;5.50;99.90
3051;DHT22;1535;51.098;6.414;2022-12-07T14:37:44;5.50;99.90
3051;DHT22;1535;51.098;6.414;2022-12-07T14:40:15;5.40;99.90
3051;DHT22;1535;51.098;6.414;2022-12-07T14:42:43;5.30;99.90
3051;DHT22;1535;51.098;6.414;2022-12-07T14:45:14;5.20;99.90
3051;DHT22;1535;51.098;6.414;2022-12-07T14:47:42;5.10;99.90
3051;DHT22;1535;51.098;6.414;2022-12-07T14:50:12;5.00;99.90
3051;DHT22;1535;51.098;6.414;2022-12-07T14:52:39;4.90;99.90
3051;DHT22;1535;51.098;6.414;2022-12-07T14:55:16;4.70;99.90
3051;DHT22;1535;51.098;6.414;2022-12-07T14:57:43;4.60;99.90
3051;DHT22;1535;51.098;6.414;2022-12-07T15:00:14;4.50;99.90
3051;DHT22;1535;51.098;6.414;2022-12-07T15:02:42;4.50;99.90
3051;DHT22;1535;51.098;6.414;2022-12-07T15:05:09;4.50;99.90
3051;DHT22;1535;51.098;6.414;2022-12-07T15:07:36;4.40;99.90
3051;DHT22;1535;51.098;6.414;2022-12-07T15:10:04;4.30;99.90
3051;DHT22;1535;51.098;6.414;2022-12-07T15:12:33;4.30;99.90
3051;DHT22;1535;51.098;6.414;2022-12-07T15:15:00;4.20;99.90
3051;DHT22;1535;51.098;6.414;2022-12-07T15:17:27;4.10;99.90
3051;DHT22;1535;51.098;6.414;2022-12-07T15:19:54;4.20;99.90
3051;DHT22;1535;51.098;6.414;2022-12-07T15:22:21;4.10;99.90
3051;DHT22;1535;51.098;6.414;2022-12-07T15:24:48;4.00;99.90
3051;DHT22;1535;51.098;6.414;2022-12-07T15:27:15;3.90;99.90
3051;DHT22;1535;51.098;6.414;2022-12-07T15:29:44;3.90;99.90
3051;DHT22;1535;51.098;6.414;2022-12-07T15:32:11;3.80;99.90
3051;DHT22;1535;51.098;6.414;2022-12-07T15:34:37;3.70;99.90
3051;DHT22;1535;51.098;6.414;2022-12-07T15:37:04;3.60;99.90
3051;DHT22;1535;51.098;6.414;2022-12-07T15:39:31;3.60;99.90
3051;DHT22;1535;51.098;6.414;2022-12-07T15:41:58;3.60;99.90
3051;DHT22;1535;51.098;6.414;2022-12-07T15:44:25;3.60;99.90
3051;DHT22;1535;51.098;6.414;2022-12-07T15:47:11;3.60;99.90
3051;DHT22;1535;51.098;6.414;2022-12-07T15:49:38;3.60;99.90
3051;DHT22;1535;51.098;6.414;2022-12-07T15:52:06;3.60;99.90
3051;DHT22;1535;51.098;6.414;2022-12-07T15:54:32;3.60;99.90
3051;DHT22;1535;51.098;6.414;2022-12-07T15:57:00;3.70;99.90
3051;DHT22;1535;51.098;6.414;2022-12-07T15:59:27;3.80;99.90
3051;DHT22;1535;51.098;6.414;2022-12-07T16:01:55;3.80;99.90
3051;DHT22;1535;51.098;6.414;2022-12-07T16:04:23;3.80;99.90
3051;DHT22;1535;51.098;6.414;2022-12-07T16:06:50;3.80;99.90
3051;DHT22;1535;51.098;6.414;2022-12-07T16:09:17;3.90;99.90
3051;DHT22;1535;51.098;6.414;2022-12-07T16:11:44;3.90;99.90
3051;DHT22;1535;51.098;6.414;2022-12-07T16:14:12;4.00;99.90
3051;DHT22;1535;51.098;6.414;2022-12-07T16:16:39;4.00;99.90
3051;DHT22;1535;51.098;6.414;2022-12-07T16:19:07;4.10;99.90
3051;DHT22;1535;51.098;6.414;2022-12-07T16:21:35;4.20;99.90
3051;DHT22;1535;51.098;6.414;2022-12-07T16:24:02;4.20;99.90
3051;DHT22;1535;51.098;6.414;2022-12-07T16:26:29;4.20;99.90
3051;DHT22;1535;51.098;6.414;2022-12-07T16:28:55;4.20;99.90
3051;DHT22;1535;51.098;6.414;2022-12-07T16:31:24;4.20;99.90
3051;DHT22;1535;51.098;6.414;2022-12-07T16:33:53;4.30;99.90
3051;DHT22;1535;51.098;6.414;2022-12-07T16:36:21;4.30;99.90
3051;DHT22;1535;51.098;6.414;2022-12-07T16:38:51;4.30;99.90
3051;DHT22;1535;51.098;6.414;2022-12-07T16:41:18;4.30;99.90
3051;DHT22;1535;51.098;6.414;2022-12-07T16:43:45;4.40;99.90
3051;DHT22;1535;51.098;6.414;2022-12-07T16:46:12;4.40;99.90
3051;DHT22;1535;51.098;6.414;2022-12-07T16:48:40;4.40;99.90
3051;DHT22;1535;51.098;6.414;2022-12-07T16:51:11;4.40;99.90
3051;DHT22;1535;51.098;6.414;2022-12-07T16:53:39;4.50;99.90
3051;DHT22;1535;51.098;6.414;2022-12-07T16:56:11;4.60;99.90